PABTPAOR

Guest
Details From PABT - BETTLES
To PAOR - NORTHWAY
Flight Number -
Tags generated
Created
Modified
Stats Distance 349 nm / 647 km
Max Altitude 17,500 ft / 5,334 m
Waypoints 8
Social Downloads 1
Likes 0
Share

Download

Looking for another format? Having issues loading an existing format? Contact us
Advertisement - Login to hide

Notes

Basic altitude profile: - Ascent Rate: 2500ft/min - Ascent Speed: 250kts - Cruise Altitude: 35000ft - Cruise Speed: 420kts - Descent Rate: 1500ft/min - Descent Speed: 250kts Options: - Use NATs: yes - Use PACOTS: yes - Use low airways: yes - Use high airways: yes

Route

PABT BTT T232 BIG V444 CIMGO PAOR

ID Type Via Altitude (ft/m) Position (lat/lon) Dist (leg/tot) Name
O PABT APT - 0 / 0 66.91394 / -151.52904 - / 0 nm BETTLES
BTT VOR - 200 / 61 66.90500 / -151.53589 0 / 0 nm BETTLES VOR-DME
FAI VOR T232 (AWY-LO) 17,500 / 5,334 64.80008 / -148.01197 153 / 153 nm FAIRBANKS VORTAC
BIG DME T232 (AWY-LO) 17,500 / 5,334 64.00438 / -145.71716 76 / 230 nm BIG DELTA VORTAC
EGAXE FIX V444 (AWY-LO) 11,500 / 3,505 63.44212 / -143.61397 65 / 295 nm
CUGCA FIX V444 (AWY-LO) 8,000 / 2,438 63.29132 / -143.08193 16 / 312 nm
CIMGO FIX V444 (AWY-LO) 8,000 / 2,438 63.10525 / -142.44228 20 / 332 nm
O PAOR APT - 0 / 0 62.96133 / -141.92914 16 / 349 nm NORTHWAY

Altitude Profile

Advertisement - Login to hide

Weather


0- 5 10 15 20 25 30 35+ Temperature / °C

Clouds and Precipitation
Forecast for 2021-03-22 12:00 UTC. Updated 2 months ago

Ground ~20,000 ft ~40,000 ft Winds

PABT

Details ICAO PABT (BTT)
Name BETTLES
Region USA (Alaska)
Timezone America/Anchorage (UTC-8.0)
Stats Elevation 644 ft / 196 m (AMSL)
Location 66.913900° -151.529000°
Runways 1
Magnetic Variation 14.885° E

METAR

PABT 131153Z 00000KT 10SM SCT070 BKN090 06/00 A3017 RMK AO2 SLP226 VIRGA VC SW T00560000 10117 20056 51009 $

Decode

TAF

PABT 131130Z 1312/1412 VRB04KT P6SM BKN070 BKN090

Decode

Departure Runways

ID Width Length Bearing (true/mag) Surface Threshold Overrun Markings Lighting
01 150 ft / 46 m 5,174 ft / 1,577 m 32.24° / 17.35° GRAVEL 0 ft / 0 m 0 ft / 0 m VISUAL EDGE THRESHOLD MALSR
19 150 ft / 46 m 5,174 ft / 1,577 m 212.26° / 197.37° GRAVEL 0 ft / 0 m 0 ft / 0 m VISUAL EDGE THRESHOLD

PAOR

Details ICAO PAOR (ORT)
Name Northway
Region USA (Alaska)
Timezone America/Anchorage (UTC-8.0)
Stats Elevation 1,720 ft / 524 m (AMSL)
Location 62.961300° -141.927000°
Runways 1
Magnetic Variation 17.616° E

METAR

PAOR 131153Z 30007KT 10SM BKN065 BKN090 05/02 A3006

Decode

TAF

PAOR 131130Z 1312/1412 30005KT P6SM BKN060 FM132100 06004KT P6SM -SHRA BKN050 FM140700 36002KT P6SM SCT100

Decode

Destination Runways

ID Width Length Bearing (true/mag) Surface Threshold Overrun Markings Lighting
05 100 ft / 30 m 5,437 ft / 1,657 m 76.05° / 58.43° ASPHALT 0 ft / 0 m 151 ft / 46 m APP EDGE THRESHOLD
23 100 ft / 30 m 5,437 ft / 1,657 m 256.08° / 238.46° ASPHALT 0 ft / 0 m 151 ft / 46 m APP EDGE THRESHOLD REIL-UNI